Miedwie — C6XP5 — position and weather

sailwx.info

Track history (hours):
 
Tides and Currents Weather Stations Pressure Air Temp Water Temp Dewpoint Dewpoint Depression Visibility Wind Speed Wind Dir Waves Ship Positions

Miedwie

Last reported at 2014-Jul-16 13:14 UTC. Time now 2014-Jul-24 10:44 UTC.
Position N 50°15' W 001°33'.

Length 190 m; draft 7.4 m.

Type: Cargo ship. MMSI: 311018300.

Date/timePositionNaut miles runAvg speedWind from/ knotsBaromVisibWave heightAir tempDewpointWater temp
2014-Jul-16 13:14N 50°15' W 001°33'11 9.6
2014-Jul-16 12:08N 50°17' W 001°17'5 8.7
2014-Jul-16 11:33N 50°19' W 001°10'8 8.0
2014-Jul-16 10:30N 50°21' W 000°57'9 9.2
2014-Jul-16 09:33N 50°23' W 000°44'1110.8
2014-Jul-16 08:32N 50°26' W 000°27'2613.0
2014-Jul-16 06:30N 50°34' E 000°13'1313.7
2014-Jul-16 05:33N 50°38' E 000°32'1312.9
2014-Jul-16 04:33N 50°45' E 000°49'1211.6
2014-Jul-16 03:33N 50°52' E 001°04'1010.3
2014-Jul-16 02:33N 50°58' E 001°17'9 9.2
2014-Jul-16 01:33N 51°04' E 001°28'1110.6
2014-Jul-16 00:33N 51°11' E 001°41'1312.8
2014-Jul-15 23:33N 51°21' E 001°53'1110.8
2014-Jul-15 22:33N 51°22' E 002°10'1313.1
2014-Jul-15 21:34N 51°23' E 002°31'1111.4
2014-Jul-15 20:34N 51°22' E 002°49'1613.6
2014-Jul-15 19:25N 51°25' E 003°14'1214.6
2014-Jul-15 18:34N 51°26' E 003°34'1110.7
2014-Jul-15 17:34N 51°21' E 003°49'9 9.2
2014-Jul-15 16:34N 51°25' E 004°02'7 7.1
2014-Jul-15 15:33N 51°22' E 004°13'3 3.2
2014-Jul-15 14:34N 51°21' E 004°17'0 0.2
2014-Jul-15 13:34N 51°21' E 004°18'4 3.7
2014-Jul-15 12:33N 51°17' E 004°20'0 0.4
2014-Jul-15 11:29N 51°17' E 004°20'0 0.0
2014-Jul-15 10:32N 51°17' E 004°20'0 0.0
2014-Jul-15 09:32N 51°17' E 004°20'0 0.0
2014-Jul-15 08:32N 51°17' E 004°20'0 0.0
2014-Jul-15 07:32N 51°17' E 004°20'0 0.0
2014-Jul-15 06:32N 51°17' E 004°20'0 0.0
2014-Jul-15 05:29N 51°17' E 004°20'0 0.0
2014-Jul-15 04:32N 51°17' E 004°20'0 0.0
2014-Jul-15 03:32N 51°17' E 004°20'0 0.0
2014-Jul-15 02:32N 51°17' E 004°20'0 0.0
2014-Jul-15 01:32N 51°17' E 004°20'0 0.0
2014-Jul-15 00:32N 51°17' E 004°20'0 0.0
2014-Jul-14 23:32N 51°17' E 004°20'0 0.0
2014-Jul-14 22:32N 51°17' E 004°20'0 0.0
2014-Jul-14 21:32N 51°17' E 004°20'0 0.0
2014-Jul-14 20:32N 51°17' E 004°20'0 0.0
2014-Jul-14 19:32N 51°17' E 004°20'0 0.0
2014-Jul-14 18:32N 51°17' E 004°20'0 0.0
2014-Jul-14 17:32N 51°17' E 004°20'0 0.0
2014-Jul-14 16:32N 51°17' E 004°20'0 0.0
2014-Jul-14 15:32N 51°17' E 004°20'0 0.0
2014-Jul-14 14:32N 51°17' E 004°20'0 0.0
2014-Jul-14 13:32N 51°17' E 004°20'0 0.0
2014-Jul-14 12:29N 51°17' E 004°20'0 0.0
2014-Jul-14 11:29N 51°17' E 004°20'0 0.0
2014-Jul-14 10:32N 51°17' E 004°20'0 0.0
2014-Jul-14 09:29N 51°17' E 004°20'0 0.0
2014-Jul-14 08:32N 51°17' E 004°20'0 0.0
2014-Jul-14 07:32N 51°17' E 004°20'0 0.0
2014-Jul-14 06:29N 51°17' E 004°20'0 0.0
2014-Jul-14 05:32N 51°17' E 004°20'0 0.0
2014-Jul-14 04:32N 51°17' E 004°20'0 0.0
2014-Jul-14 03:32N 51°17' E 004°20'0 0.0
2014-Jul-14 02:32N 51°17' E 004°20'0 0.0
2014-Jul-14 01:29N 51°17' E 004°20'0 0.0
2014-Jul-14 00:32N 51°17' E 004°20'0 0.0
2014-Jul-13 23:29N 51°17' E 004°20'0 0.0
2014-Jul-13 22:32N 51°17' E 004°20'0 0.0
2014-Jul-13 21:32N 51°17' E 004°20'0 0.0
2014-Jul-13 20:32N 51°17' E 004°20'0 0.0
2014-Jul-13 19:32N 51°17' E 004°20'0 0.0
2014-Jul-13 18:29N 51°17' E 004°20'0 0.0
2014-Jul-13 17:32N 51°17' E 004°20'0 0.0
2014-Jul-13 16:32N 51°17' E 004°20'0 0.0
2014-Jul-13 15:32N 51°17' E 004°20'0 0.0
2014-Jul-13 14:32N 51°17' E 004°20'0 0.0
2014-Jul-13 13:32N 51°17' E 004°20'0 0.0
2014-Jul-13 12:32N 51°17' E 004°20'0 0.0
2014-Jul-13 11:32N 51°17' E 004°20'0 0.0
2014-Jul-13 10:32N 51°17' E 004°20'0 0.0
2014-Jul-13 09:32N 51°17' E 004°20'0 0.0
2014-Jul-13 08:29N 51°17' E 004°20'0 0.0
2014-Jul-13 07:29N 51°17' E 004°20'0 0.0
2014-Jul-13 06:32N 51°17' E 004°20'0 0.0
2014-Jul-13 05:32N 51°17' E 004°20'0 0.0
2014-Jul-13 04:29N 51°17' E 004°20'0 0.0
2014-Jul-13 03:32N 51°17' E 004°20'0 0.0
2014-Jul-13 02:32N 51°17' E 004°20'0 0.0
2014-Jul-13 01:32N 51°17' E 004°20'0 0.0
2014-Jul-13 00:32N 51°17' E 004°20'0 0.0
2014-Jul-12 23:26N 51°17' E 004°20'0 0.0
2014-Jul-12 22:32N 51°17' E 004°20'0 0.0
2014-Jul-12 21:32N 51°17' E 004°20'0 0.0
2014-Jul-12 20:32N 51°17' E 004°20'0 0.0
2014-Jul-12 19:32N 51°17' E 004°20'0 0.0
2014-Jul-12 18:32N 51°17' E 004°20'0 0.0
2014-Jul-12 17:29N 51°17' E 004°20'0 0.0
2014-Jul-12 16:32N 51°17' E 004°20'0 0.0
2014-Jul-12 15:32N 51°17' E 004°20'0 0.0
2014-Jul-12 14:32N 51°17' E 004°20'0 0.0
2014-Jul-12 13:32N 51°17' E 004°20'0 0.0
2014-Jul-12 12:32N 51°17' E 004°20'0 0.0
2014-Jul-12 11:32N 51°17' E 004°20'0 0.0
2014-Jul-12 10:32N 51°17' E 004°20'0 0.0
2014-Jul-12 09:32N 51°17' E 004°20'0 0.0
2014-Jul-12 08:32N 51°17' E 004°20'0 0.0
2014-Jul-12 07:32N 51°17' E 004°20'0 0.0
2014-Jul-12 06:32N 51°17' E 004°20'0 0.0
2014-Jul-12 05:32N 51°17' E 004°20'0 0.0
2014-Jul-12 04:32N 51°17' E 004°20'0 0.0
2014-Jul-12 03:32N 51°17' E 004°20'0 0.0
2014-Jul-12 02:32N 51°17' E 004°20'0 0.0
2014-Jul-12 01:32N 51°17' E 004°20'0 0.0
2014-Jul-12 00:32N 51°17' E 004°20'0 0.0
2014-Jul-11 23:32N 51°17' E 004°20'0 0.0
2014-Jul-11 22:32N 51°17' E 004°20'0 0.0
2014-Jul-11 21:32N 51°17' E 004°20'0 0.0
2014-Jul-11 20:32N 51°17' E 004°20'0 0.0
2014-Jul-11 19:32N 51°17' E 004°20'0 0.0
2014-Jul-11 18:32N 51°17' E 004°20'0 0.0
2014-Jul-11 17:32N 51°17' E 004°20'0 0.0
2014-Jul-11 16:32N 51°17' E 004°20'0 0.0
2014-Jul-11 15:32N 51°17' E 004°20'0 0.0
2014-Jul-11 14:32N 51°17' E 004°20'0 0.2
2014-Jul-11 13:33N 51°17' E 004°21'0 0.3
2014-Jul-11 12:33N 51°17' E 004°21'0 0.0
2014-Jul-11 11:33N 51°17' E 004°21'0 0.0
2014-Jul-11 10:33N 51°17' E 004°21'0 0.0
2014-Jul-11 09:33N 51°17' E 004°21'0 0.0
2014-Jul-11 08:33N 51°17' E 004°21'0 0.0
2014-Jul-11 07:33N 51°17' E 004°21'0 0.0
2014-Jul-11 06:33N 51°17' E 004°21'0 0.0
2014-Jul-11 05:30N 51°17' E 004°21'0 0.0
2014-Jul-11 04:33N 51°17' E 004°21'0 0.0
2014-Jul-11 03:33N 51°17' E 004°21'0 0.0
2014-Jul-11 02:33N 51°17' E 004°21'0 0.0
2014-Jul-11 01:33N 51°17' E 004°21'0 0.0
2014-Jul-11 00:33N 51°17' E 004°21'0 0.0
2014-Jul-10 23:33N 51°17' E 004°21'0 0.0
2014-Jul-10 22:33N 51°17' E 004°21'0 0.0
2014-Jul-10 21:33N 51°17' E 004°21'0 0.0
2014-Jul-10 20:33N 51°17' E 004°21'0 0.0
2014-Jul-10 19:33N 51°17' E 004°21'0 0.0
2014-Jul-10 18:30N 51°17' E 004°21'0 0.0
2014-Jul-10 17:33N 51°17' E 004°21'0 0.0
2014-Jul-10 16:33N 51°17' E 004°21'0 0.0
2014-Jul-10 15:33N 51°17' E 004°21'0 0.0
2014-Jul-10 14:30N 51°17' E 004°21'0 0.0
2014-Jul-10 13:33N 51°17' E 004°21'0 0.0
2014-Jul-10 12:33N 51°17' E 004°21'0 0.0
2014-Jul-10 11:33N 51°17' E 004°21'0 0.0
2014-Jul-10 10:33N 51°17' E 004°21'0 0.0
2014-Jul-10 09:33N 51°17' E 004°21'0 0.0
2014-Jul-10 08:33N 51°17' E 004°21'0 0.0
2014-Jul-10 07:33N 51°17' E 004°21'0 0.0
2014-Jul-10 06:33N 51°17' E 004°21'0 0.0
2014-Jul-10 05:33N 51°17' E 004°21'0 0.0
2014-Jul-10 04:33N 51°17' E 004°21'0 0.0
2014-Jul-10 03:33N 51°17' E 004°21'0 0.0
2014-Jul-10 02:33N 51°17' E 004°21'0 0.0
2014-Jul-10 01:33N 51°17' E 004°21'0 0.0
2014-Jul-10 00:33N 51°17' E 004°21'0 0.0
2014-Jul-09 23:33N 51°17' E 004°21'0 0.0
2014-Jul-09 22:33N 51°17' E 004°21'0 0.0
2014-Jul-09 21:33N 51°17' E 004°21'0 0.0
2014-Jul-09 20:33N 51°17' E 004°21'0 0.0
2014-Jul-09 19:33N 51°17' E 004°21'0 0.0
2014-Jul-09 18:33N 51°17' E 004°21'0 0.0
2014-Jul-09 17:33N 51°17' E 004°21'0 0.0
2014-Jul-09 16:33N 51°17' E 004°21'0 0.0
2014-Jul-09 15:33N 51°17' E 004°21'0 0.0
2014-Jul-09 14:33N 51°17' E 004°21'0 0.0
2014-Jul-09 13:33N 51°17' E 004°21'0 0.0
2014-Jul-09 12:33N 51°17' E 004°21'0 0.0
2014-Jul-09 11:30N 51°17' E 004°21'0 0.0
2014-Jul-09 10:33N 51°17' E 004°21'0 0.0
2014-Jul-09 09:33N 51°17' E 004°21'0 0.0
2014-Jul-09 08:33N 51°17' E 004°21'0 0.0
2014-Jul-09 07:33N 51°17' E 004°21'0 0.0
2014-Jul-09 06:33N 51°17' E 004°21'0 0.0
2014-Jul-09 05:33N 51°17' E 004°21'0 0.0
2014-Jul-09 04:33N 51°17' E 004°21'0 0.0
2014-Jul-09 03:33N 51°17' E 004°21'0 0.0
2014-Jul-09 02:33N 51°17' E 004°21'0 0.0
2014-Jul-09 01:33N 51°17' E 004°21'0 0.0
2014-Jul-09 00:33N 51°17' E 004°21'0 0.0
2014-Jul-08 23:33N 51°17' E 004°21'0 0.0
2014-Jul-08 22:30N 51°17' E 004°21'0 0.0
2014-Jul-08 21:33N 51°17' E 004°21'0 0.0
2014-Jul-08 20:33N 51°17' E 004°21'0 0.0
2014-Jul-08 19:33N 51°17' E 004°21'0 0.0
2014-Jul-08 18:33N 51°17' E 004°21'0 0.0
2014-Jul-08 17:30N 51°17' E 004°21'0 0.0
2014-Jul-08 16:33N 51°17' E 004°21'0 0.0
2014-Jul-08 15:33N 51°17' E 004°21'0 0.0
2014-Jul-08 14:30N 51°17' E 004°21'0 0.0
2014-Jul-08 13:30N 51°17' E 004°21'0 0.0
2014-Jul-08 12:30N 51°17' E 004°21'0 0.0
2014-Jul-08 11:33N 51°17' E 004°21'0 0.0
2014-Jul-08 10:33N 51°17' E 004°21'0 0.0
2014-Jul-08 09:33N 51°17' E 004°21'0 0.0
2014-Jul-08 08:33N 51°17' E 004°21'0 0.0
2014-Jul-08 07:33N 51°17' E 004°21'0 0.0
2014-Jul-08 06:33N 51°17' E 004°21'0 0.0
2014-Jul-08 05:33N 51°17' E 004°21'0 0.0
2014-Jul-08 04:33N 51°17' E 004°21'0 0.0
2014-Jul-08 03:33N 51°17' E 004°21'0 0.0
2014-Jul-08 02:33N 51°17' E 004°21'0 0.0
2014-Jul-08 01:33N 51°17' E 004°21'0 0.0
2014-Jul-08 00:33N 51°17' E 004°21'0 0.0
2014-Jul-07 23:33N 51°17' E 004°21'0 0.0
2014-Jul-07 22:33N 51°17' E 004°21'0 0.0
2014-Jul-07 21:33N 51°17' E 004°21'0 0.0
2014-Jul-07 20:33N 51°17' E 004°21'0 0.0
2014-Jul-07 19:33N 51°17' E 004°21'0 0.0
2014-Jul-07 17:33N 51°17' E 004°21'0 0.0
2014-Jul-07 16:33N 51°17' E 004°21'0 0.0
2014-Jul-07 15:33N 51°17' E 004°21'0 0.0
2014-Jul-07 14:33N 51°17' E 004°21'0 0.0
2014-Jul-07 13:33N 51°17' E 004°21'0 0.0
2014-Jul-07 12:33N 51°17' E 004°21'0 0.0
2014-Jul-07 11:33N 51°17' E 004°21'0 0.0
2014-Jul-07 10:33N 51°17' E 004°21'0 0.0
2014-Jul-07 09:33N 51°17' E 004°21'0 0.0
2014-Jul-07 08:33N 51°17' E 004°21'0 0.0
2014-Jul-07 07:33N 51°17' E 004°21'0 0.0
2014-Jul-07 06:33N 51°17' E 004°21'0 0.0
2014-Jul-07 05:30N 51°17' E 004°21'0 0.0
2014-Jul-07 04:33N 51°17' E 004°21'0 0.0
2014-Jul-07 03:33N 51°17' E 004°21'0 0.0
2014-Jul-07 02:33N 51°17' E 004°21'0 0.0
2014-Jul-07 01:33N 51°17' E 004°21'0 0.0
2014-Jul-07 00:33N 51°17' E 004°21'0 0.0
2014-Jul-06 23:33N 51°17' E 004°21'0 0.0
2014-Jul-06 22:33N 51°17' E 004°21'0 0.0
2014-Jul-06 21:33N 51°17' E 004°21'0 0.0
2014-Jul-06 20:33N 51°17' E 004°21'0 0.0
2014-Jul-06 19:33N 51°17' E 004°21'0 0.0
2014-Jul-06 18:33N 51°17' E 004°21'0 0.0
2014-Jul-06 17:33N 51°17' E 004°21'0 0.0
2014-Jul-06 16:33N 51°17' E 004°21'0 0.0
2014-Jul-06 15:33N 51°17' E 004°21'0 0.0
2014-Jul-06 14:33N 51°17' E 004°21'0 0.0
2014-Jul-06 13:33N 51°17' E 004°21'  
Track history (hours):
 
Tides and Currents Weather Stations Pressure Air Temp Water Temp Dewpoint Dewpoint Depression Visibility Wind Speed Wind Dir Waves Ship Positions

Miedwie

Last reported at 2014-Jul-16 13:14 UTC. Time now 2014-Jul-24 10:44 UTC.
Position N 50°15' W 001°33'.

Length 190 m; draft 7.4 m.

Type: Cargo ship. MMSI: 311018300.

Date/timePositionNaut miles runAvg speedWind from/ knotsBaromVisibWave heightAir tempDewpointWater temp
2014-Jul-16 13:14N 50°15' W 001°33'11 9.6
2014-Jul-16 12:08N 50°17' W 001°17'5 8.7
2014-Jul-16 11:33N 50°19' W 001°10'8 8.0
2014-Jul-16 10:30N 50°21' W 000°57'9 9.2
2014-Jul-16 09:33N 50°23' W 000°44'1110.8
2014-Jul-16 08:32N 50°26' W 000°27'2613.0
2014-Jul-16 06:30N 50°34' E 000°13'1313.7
2014-Jul-16 05:33N 50°38' E 000°32'1312.9
2014-Jul-16 04:33N 50°45' E 000°49'1211.6
2014-Jul-16 03:33N 50°52' E 001°04'1010.3
2014-Jul-16 02:33N 50°58' E 001°17'9 9.2
2014-Jul-16 01:33N 51°04' E 001°28'1110.6
2014-Jul-16 00:33N 51°11' E 001°41'1312.8
2014-Jul-15 23:33N 51°21' E 001°53'1110.8
2014-Jul-15 22:33N 51°22' E 002°10'1313.1
2014-Jul-15 21:34N 51°23' E 002°31'1111.4
2014-Jul-15 20:34N 51°22' E 002°49'1613.6
2014-Jul-15 19:25N 51°25' E 003°14'1214.6
2014-Jul-15 18:34N 51°26' E 003°34'1110.7
2014-Jul-15 17:34N 51°21' E 003°49'9 9.2
2014-Jul-15 16:34N 51°25' E 004°02'7 7.1
2014-Jul-15 15:33N 51°22' E 004°13'3 3.2
2014-Jul-15 14:34N 51°21' E 004°17'0 0.2
2014-Jul-15 13:34N 51°21' E 004°18'4 3.7
2014-Jul-15 12:33N 51°17' E 004°20'0 0.4
2014-Jul-15 11:29N 51°17' E 004°20'0 0.0
2014-Jul-15 10:32N 51°17' E 004°20'0 0.0
2014-Jul-15 09:32N 51°17' E 004°20'0 0.0
2014-Jul-15 08:32N 51°17' E 004°20'0 0.0
2014-Jul-15 07:32N 51°17' E 004°20'0 0.0
2014-Jul-15 06:32N 51°17' E 004°20'0 0.0
2014-Jul-15 05:29N 51°17' E 004°20'0 0.0
2014-Jul-15 04:32N 51°17' E 004°20'0 0.0
2014-Jul-15 03:32N 51°17' E 004°20'0 0.0
2014-Jul-15 02:32N 51°17' E 004°20'0 0.0
2014-Jul-15 01:32N 51°17' E 004°20'0 0.0
2014-Jul-15 00:32N 51°17' E 004°20'0 0.0
2014-Jul-14 23:32N 51°17' E 004°20'0 0.0
2014-Jul-14 22:32N 51°17' E 004°20'0 0.0
2014-Jul-14 21:32N 51°17' E 004°20'0 0.0
2014-Jul-14 20:32N 51°17' E 004°20'0 0.0
2014-Jul-14 19:32N 51°17' E 004°20'0 0.0
2014-Jul-14 18:32N 51°17' E 004°20'0 0.0
2014-Jul-14 17:32N 51°17' E 004°20'0 0.0
2014-Jul-14 16:32N 51°17' E 004°20'0 0.0
2014-Jul-14 15:32N 51°17' E 004°20'0 0.0
2014-Jul-14 14:32N 51°17' E 004°20'0 0.0
2014-Jul-14 13:32N 51°17' E 004°20'0 0.0
2014-Jul-14 12:29N 51°17' E 004°20'0 0.0
2014-Jul-14 11:29N 51°17' E 004°20'0 0.0
2014-Jul-14 10:32N 51°17' E 004°20'0 0.0
2014-Jul-14 09:29N 51°17' E 004°20'0 0.0
2014-Jul-14 08:32N 51°17' E 004°20'0 0.0
2014-Jul-14 07:32N 51°17' E 004°20'0 0.0
2014-Jul-14 06:29N 51°17' E 004°20'0 0.0
2014-Jul-14 05:32N 51°17' E 004°20'0 0.0
2014-Jul-14 04:32N 51°17' E 004°20'0 0.0
2014-Jul-14 03:32N 51°17' E 004°20'0 0.0
2014-Jul-14 02:32N 51°17' E 004°20'0 0.0
2014-Jul-14 01:29N 51°17' E 004°20'0 0.0
2014-Jul-14 00:32N 51°17' E 004°20'0 0.0
2014-Jul-13 23:29N 51°17' E 004°20'0 0.0
2014-Jul-13 22:32N 51°17' E 004°20'0 0.0
2014-Jul-13 21:32N 51°17' E 004°20'0 0.0
2014-Jul-13 20:32N 51°17' E 004°20'0 0.0
2014-Jul-13 19:32N 51°17' E 004°20'0 0.0
2014-Jul-13 18:29N 51°17' E 004°20'0 0.0
2014-Jul-13 17:32N 51°17' E 004°20'0 0.0
2014-Jul-13 16:32N 51°17' E 004°20'0 0.0
2014-Jul-13 15:32N 51°17' E 004°20'0 0.0
2014-Jul-13 14:32N 51°17' E 004°20'0 0.0
2014-Jul-13 13:32N 51°17' E 004°20'0 0.0
2014-Jul-13 12:32N 51°17' E 004°20'0 0.0
2014-Jul-13 11:32N 51°17' E 004°20'0 0.0
2014-Jul-13 10:32N 51°17' E 004°20'0 0.0
2014-Jul-13 09:32N 51°17' E 004°20'0 0.0
2014-Jul-13 08:29N 51°17' E 004°20'0 0.0
2014-Jul-13 07:29N 51°17' E 004°20'0 0.0
2014-Jul-13 06:32N 51°17' E 004°20'0 0.0
2014-Jul-13 05:32N 51°17' E 004°20'0 0.0
2014-Jul-13 04:29N 51°17' E 004°20'0 0.0
2014-Jul-13 03:32N 51°17' E 004°20'0 0.0
2014-Jul-13 02:32N 51°17' E 004°20'0 0.0
2014-Jul-13 01:32N 51°17' E 004°20'0 0.0
2014-Jul-13 00:32N 51°17' E 004°20'0 0.0
2014-Jul-12 23:26N 51°17' E 004°20'0 0.0
2014-Jul-12 22:32N 51°17' E 004°20'0 0.0
2014-Jul-12 21:32N 51°17' E 004°20'0 0.0
2014-Jul-12 20:32N 51°17' E 004°20'0 0.0
2014-Jul-12 19:32N 51°17' E 004°20'0 0.0
2014-Jul-12 18:32N 51°17' E 004°20'0 0.0
2014-Jul-12 17:29N 51°17' E 004°20'0 0.0
2014-Jul-12 16:32N 51°17' E 004°20'0 0.0
2014-Jul-12 15:32N 51°17' E 004°20'0 0.0
2014-Jul-12 14:32N 51°17' E 004°20'0 0.0
2014-Jul-12 13:32N 51°17' E 004°20'0 0.0
2014-Jul-12 12:32N 51°17' E 004°20'0 0.0
2014-Jul-12 11:32N 51°17' E 004°20'0 0.0
2014-Jul-12 10:32N 51°17' E 004°20'0 0.0
2014-Jul-12 09:32N 51°17' E 004°20'0 0.0
2014-Jul-12 08:32N 51°17' E 004°20'0 0.0
2014-Jul-12 07:32N 51°17' E 004°20'0 0.0
2014-Jul-12 06:32N 51°17' E 004°20'0 0.0
2014-Jul-12 05:32N 51°17' E 004°20'0 0.0
2014-Jul-12 04:32N 51°17' E 004°20'0 0.0
2014-Jul-12 03:32N 51°17' E 004°20'0 0.0
2014-Jul-12 02:32N 51°17' E 004°20'0 0.0
2014-Jul-12 01:32N 51°17' E 004°20'0 0.0
2014-Jul-12 00:32N 51°17' E 004°20'0 0.0
2014-Jul-11 23:32N 51°17' E 004°20'0 0.0
2014-Jul-11 22:32N 51°17' E 004°20'0 0.0
2014-Jul-11 21:32N 51°17' E 004°20'0 0.0
2014-Jul-11 20:32N 51°17' E 004°20'0 0.0
2014-Jul-11 19:32N 51°17' E 004°20'0 0.0
2014-Jul-11 18:32N 51°17' E 004°20'0 0.0
2014-Jul-11 17:32N 51°17' E 004°20'0 0.0
2014-Jul-11 16:32N 51°17' E 004°20'0 0.0
2014-Jul-11 15:32N 51°17' E 004°20'0 0.0
2014-Jul-11 14:32N 51°17' E 004°20'0 0.2
2014-Jul-11 13:33N 51°17' E 004°21'0 0.3
2014-Jul-11 12:33N 51°17' E 004°21'0 0.0
2014-Jul-11 11:33N 51°17' E 004°21'0 0.0
2014-Jul-11 10:33N 51°17' E 004°21'0 0.0
2014-Jul-11 09:33N 51°17' E 004°21'0 0.0
2014-Jul-11 08:33N 51°17' E 004°21'0 0.0
2014-Jul-11 07:33N 51°17' E 004°21'0 0.0
2014-Jul-11 06:33N 51°17' E 004°21'0 0.0
2014-Jul-11 05:30N 51°17' E 004°21'0 0.0
2014-Jul-11 04:33N 51°17' E 004°21'0 0.0
2014-Jul-11 03:33N 51°17' E 004°21'0 0.0
2014-Jul-11 02:33N 51°17' E 004°21'0 0.0
2014-Jul-11 01:33N 51°17' E 004°21'0 0.0
2014-Jul-11 00:33N 51°17' E 004°21'0 0.0
2014-Jul-10 23:33N 51°17' E 004°21'0 0.0
2014-Jul-10 22:33N 51°17' E 004°21'0 0.0
2014-Jul-10 21:33N 51°17' E 004°21'0 0.0
2014-Jul-10 20:33N 51°17' E 004°21'0 0.0
2014-Jul-10 19:33N 51°17' E 004°21'0 0.0
2014-Jul-10 18:30N 51°17' E 004°21'0 0.0
2014-Jul-10 17:33N 51°17' E 004°21'0 0.0
2014-Jul-10 16:33N 51°17' E 004°21'0 0.0
2014-Jul-10 15:33N 51°17' E 004°21'0 0.0
2014-Jul-10 14:30N 51°17' E 004°21'0 0.0
2014-Jul-10 13:33N 51°17' E 004°21'0 0.0
2014-Jul-10 12:33N 51°17' E 004°21'0 0.0
2014-Jul-10 11:33N 51°17' E 004°21'0 0.0
2014-Jul-10 10:33N 51°17' E 004°21'0 0.0
2014-Jul-10 09:33N 51°17' E 004°21'0 0.0
2014-Jul-10 08:33N 51°17' E 004°21'0 0.0
2014-Jul-10 07:33N 51°17' E 004°21'0 0.0
2014-Jul-10 06:33N 51°17' E 004°21'0 0.0
2014-Jul-10 05:33N 51°17' E 004°21'0 0.0
2014-Jul-10 04:33N 51°17' E 004°21'0 0.0
2014-Jul-10 03:33N 51°17' E 004°21'0 0.0
2014-Jul-10 02:33N 51°17' E 004°21'0 0.0
2014-Jul-10 01:33N 51°17' E 004°21'0 0.0
2014-Jul-10 00:33N 51°17' E 004°21'0 0.0
2014-Jul-09 23:33N 51°17' E 004°21'0 0.0
2014-Jul-09 22:33N 51°17' E 004°21'0 0.0
2014-Jul-09 21:33N 51°17' E 004°21'0 0.0
2014-Jul-09 20:33N 51°17' E 004°21'0 0.0
2014-Jul-09 19:33N 51°17' E 004°21'0 0.0
2014-Jul-09 18:33N 51°17' E 004°21'0 0.0
2014-Jul-09 17:33N 51°17' E 004°21'0 0.0
2014-Jul-09 16:33N 51°17' E 004°21'0 0.0
2014-Jul-09 15:33N 51°17' E 004°21'0 0.0
2014-Jul-09 14:33N 51°17' E 004°21'0 0.0
2014-Jul-09 13:33N 51°17' E 004°21'0 0.0
2014-Jul-09 12:33N 51°17' E 004°21'0 0.0
2014-Jul-09 11:30N 51°17' E 004°21'0 0.0
2014-Jul-09 10:33N 51°17' E 004°21'0 0.0
2014-Jul-09 09:33N 51°17' E 004°21'0 0.0
2014-Jul-09 08:33N 51°17' E 004°21'0 0.0
2014-Jul-09 07:33N 51°17' E 004°21'0 0.0
2014-Jul-09 06:33N 51°17' E 004°21'0 0.0
2014-Jul-09 05:33N 51°17' E 004°21'0 0.0
2014-Jul-09 04:33N 51°17' E 004°21'0 0.0
2014-Jul-09 03:33N 51°17' E 004°21'0 0.0
2014-Jul-09 02:33N 51°17' E 004°21'0 0.0
2014-Jul-09 01:33N 51°17' E 004°21'0 0.0
2014-Jul-09 00:33N 51°17' E 004°21'0 0.0
2014-Jul-08 23:33N 51°17' E 004°21'0 0.0
2014-Jul-08 22:30N 51°17' E 004°21'0 0.0
2014-Jul-08 21:33N 51°17' E 004°21'0 0.0
2014-Jul-08 20:33N 51°17' E 004°21'0 0.0
2014-Jul-08 19:33N 51°17' E 004°21'0 0.0
2014-Jul-08 18:33N 51°17' E 004°21'0 0.0
2014-Jul-08 17:30N 51°17' E 004°21'0 0.0
2014-Jul-08 16:33N 51°17' E 004°21'0 0.0
2014-Jul-08 15:33N 51°17' E 004°21'0 0.0
2014-Jul-08 14:30N 51°17' E 004°21'0 0.0
2014-Jul-08 13:30N 51°17' E 004°21'0 0.0
2014-Jul-08 12:30N 51°17' E 004°21'0 0.0
2014-Jul-08 11:33N 51°17' E 004°21'0 0.0
2014-Jul-08 10:33N 51°17' E 004°21'0 0.0
2014-Jul-08 09:33N 51°17' E 004°21'0 0.0
2014-Jul-08 08:33N 51°17' E 004°21'0 0.0
2014-Jul-08 07:33N 51°17' E 004°21'0 0.0
2014-Jul-08 06:33N 51°17' E 004°21'0 0.0
2014-Jul-08 05:33N 51°17' E 004°21'0 0.0
2014-Jul-08 04:33N 51°17' E 004°21'0 0.0
2014-Jul-08 03:33N 51°17' E 004°21'0 0.0
2014-Jul-08 02:33N 51°17' E 004°21'0 0.0
2014-Jul-08 01:33N 51°17' E 004°21'0 0.0
2014-Jul-08 00:33N 51°17' E 004°21'0 0.0
2014-Jul-07 23:33N 51°17' E 004°21'0 0.0
2014-Jul-07 22:33N 51°17' E 004°21'0 0.0
2014-Jul-07 21:33N 51°17' E 004°21'0 0.0
2014-Jul-07 20:33N 51°17' E 004°21'0 0.0
2014-Jul-07 19:33N 51°17' E 004°21'0 0.0
2014-Jul-07 17:33N 51°17' E 004°21'0 0.0
2014-Jul-07 16:33N 51°17' E 004°21'0 0.0
2014-Jul-07 15:33N 51°17' E 004°21'0 0.0
2014-Jul-07 14:33N 51°17' E 004°21'0 0.0
2014-Jul-07 13:33N 51°17' E 004°21'0 0.0
2014-Jul-07 12:33N 51°17' E 004°21'0 0.0
2014-Jul-07 11:33N 51°17' E 004°21'0 0.0
2014-Jul-07 10:33N 51°17' E 004°21'0 0.0
2014-Jul-07 09:33N 51°17' E 004°21'0 0.0
2014-Jul-07 08:33N 51°17' E 004°21'0 0.0
2014-Jul-07 07:33N 51°17' E 004°21'0 0.0
2014-Jul-07 06:33N 51°17' E 004°21'0 0.0
2014-Jul-07 05:30N 51°17' E 004°21'0 0.0
2014-Jul-07 04:33N 51°17' E 004°21'0 0.0
2014-Jul-07 03:33N 51°17' E 004°21'0 0.0
2014-Jul-07 02:33N 51°17' E 004°21'0 0.0
2014-Jul-07 01:33N 51°17' E 004°21'0 0.0
2014-Jul-07 00:33N 51°17' E 004°21'0 0.0
2014-Jul-06 23:33N 51°17' E 004°21'0 0.0
2014-Jul-06 22:33N 51°17' E 004°21'0 0.0
2014-Jul-06 21:33N 51°17' E 004°21'0 0.0
2014-Jul-06 20:33N 51°17' E 004°21'0 0.0
2014-Jul-06 19:33N 51°17' E 004°21'0 0.0
2014-Jul-06 18:33N 51°17' E 004°21'0 0.0
2014-Jul-06 17:33N 51°17' E 004°21'0 0.0
2014-Jul-06 16:33N 51°17' E 004°21'0 0.0
2014-Jul-06 15:33N 51°17' E 004°21'0 0.0
2014-Jul-06 14:33N 51°17' E 004°21'0 0.0
2014-Jul-06 13:33N 51°17' E 004°21'  

Dump ship's entire track history